Regionale Übersicht

METAR und TAF

Montag, 06. April 2020 - 17:25 Uhr

Beobachtete horizontale meteorologische Sicht an ausgewählten Flughäfen. Die vollständigen METARs und Flugwettervorhersagen (TAFs) sind verfügbar, wenn Sie auf das entsprechende Symbol mit der ICAO-Flughafenkennung klicken.

  • Luxemburg (ELLX)

    Taf: TAF ELLX 061100Z 0612/0718 17008KT CAVOK TEMPO 0612/0618 18011KT PROB40 TEMPO 0703/0706 5000 BR=

    Metar: METAR ELLX 061450Z 21010KT 160V240 CAVOK 20/M00 Q1022 NOSIG=

  • Spangdahlem (ETAD)

    Taf: TAF ETAD 061000Z 0610/0716 20010G18KT 9999 SKC QNH3016INS BECMG 0617/0618 VRB06KT 9999 FEW020 QNH3024INS BECMG 0702/0703 06005KT 9999 SCT020 QNH3036INS TX18/0614Z TN05/0704Z=

    Metar: METAR ETAD 061456Z AUTO 19009KT 9999 CLR 20/00 A3019 RMK AO2 SLP211 T01950000 52005 $=

  • Metz/Nancy (LFJL)

    Taf: TAF LFJL 061100Z NIL=

    Metar: METAR LFJL 061500Z AUTO 20010KT 160V240 CAVOK 21/02 Q1022=

  • Saarbrücken/Intl (EDDR)

    Taf: TAF AMD EDDR 061211Z 0612/0712 22010KT CAVOK TEMPO 0612/0615 18015G25KT BECMG 0620/0622 VRB03KT BECMG 0706/0708 07008KT=

    Metar: METAR EDDR 061450Z 22015KT 190V250 CAVOK 21/M01 Q1023 NOSIG=

  • Hahn (EDFH)

    Taf: TAF EDFH 061100Z 0612/0712 22012KT CAVOK PROB30 TEMPO 0612/0616 23015G25KT BECMG 0622/0624 14004KT BECMG 0710/0712 01008KT=

    Metar: METAR EDFH 061450Z 24012KT 210V280 CAVOK 19/M01 Q1022=

  • Ramstein (ETAR)

    Taf: TAF AMD ETAR 061221Z 0612/0716 22007KT 9999 SKC WS010/22021KT QNH3020INS TEMPO 0611/0616 23010G20KT 510004 BECMG 0615/0616 22008KT 9999 SKC QNH3023INS BECMG 0701/0702 VRB06KT 9999 SCT050 BKN080 QNH3035INS BECMG 0709/0710 07009KT 9999 FEW030 SCT080 QNH3038INS TX22/0615Z TN01/0703Z=

    Metar: METAR ETAR 061456Z AUTO 23011G16KT 9999 CLR 22/00 A3019 RMK AO2 PK WND 20028/12 SLP228 T02231005 58003 FZRANO $=

  • Nancy/Ochey (LFSO)

    Taf: TAF LFSO 061400Z 0615/0715 23015KT CAVOK BECMG 0615/0617 14005KT BECMG 0710/0712 08010KT=

    Metar: METAR LFSO 061500Z AUTO 20007KT 170V230 CAVOK 21/M00 Q1023 NOSIG=

  • Liège Bierset (EBLG)

    Taf: TAF EBLG 061100Z 0612/0718 21012KT CAVOK BECMG 0618/0620 27005KT TEMPO 0619/0622 SCT008 BKN013 TEMPO 0702/0707 2000 BR BKN004 PROB30 TEMPO 0703/0707 0700 BCFG BKN001=

    Metar: METAR EBLG 061450Z 23013KT CAVOK 21/02 Q1021 NOSIG=

  • Saint-Dizier (LFSI)

    Taf: TAF LFSI 061400Z 0615/0715 25008KT CAVOK=

    Metar: METAR LFSI 061500Z AUTO 27009KT 230V310 CAVOK 22/02 Q1022=

  • Maastricht/Zuid Limburg (EHBK)

    Taf: TAF EHBK 061051Z 0612/0718 22011KT CAVOK BECMG 0616/0619 27010KT BECMG 0622/0701 VRB03KT PROB30 0703/0707 1200 BCFG=

    Metar: METAR EHBK 061455Z AUTO 24013KT 200V300 9999 NCD 22/03 Q1020 NOSIG=

  • Köln/Köln-Bonn (EDDK)

    Taf: TAF EDDK 061100Z 0612/0718 19012KT CAVOK BECMG 0615/0617 23005KT BECMG 0620/0622 11003KT BECMG 0708/0710 05005KT=

    Metar: METAR EDDK 061450Z 23010KT 180V260 CAVOK 23/01 Q1021 NOSIG=

  • Charleroi (EBCI)

    Taf: TAF EBCI 061100Z 0612/0718 22012KT 9999 SCT045 TEMPO 0617/0621 SCT007 BKN012 BECMG 0622/0701 VRB03KT 2500 BR TEMPO 0703/0708 1200 BCFG BKN003 PROB40 TEMPO 0703/0707 0400 FG BKN001 BECMG 0707/0710 8000 NSW BKN018=

    Metar: METAR EBCI 061450Z AUTO 23016KT CAVOK 19/03 Q1021=

  • Wiesbaden (ETOU)

    Taf: TAF ETOU 061200Z 0612/0718 23009KT 9999 SKC QNH3020INS BECMG 0704/0705 34004KT 6000 BR SCT025 QNH3044INS BECMG 0710/0711 05006KT 9999 NSW FEW022 QNH3040INS TX20/0615Z TN05/0703Z=

    Metar: METAR ETOU 061456Z AUTO 25011KT 9999 CLR 22/01 A3019 RMK AO2 SLP225 T02220007 55003 $=

  • Karlsruhe/Baden-Baden (EDSB)

    Taf: TAF EDSB 061100Z 0612/0712 25006KT CAVOK BECMG 0617/0619 VRB03KT BECMG 0708/0710 02008KT=

    Metar: METAR EDSB 061450Z 23008KT 200V280 CAVOK 23/02 Q1022=

  • Chalons/Vatry (LFOK)

    Taf: TAF LFOK 061100Z 0612/0712 24010KT CAVOK BECMG 0700/0702 06005KT=

    Metar: METAR LFOK 061500Z AUTO 25014KT CAVOK 20/05 Q1022 NOSIG=

  • Frankfurt/Main (EDDF)

    Taf: TAF EDDF 061100Z 0612/0718 22010KT CAVOK BECMG 0622/0624 05003KT BECMG 0708/0710 05008KT=

    Metar: METAR EDDF 061450Z 20007KT 160V230 CAVOK 22/03 Q1022 NOSIG=

  • Brüssel (EBBR)

    Taf: TAF EBBR 061100Z 0612/0718 22011KT 9999 SCT045 TEMPO 0617/0620 SCT009 BKN014 BECMG 0622/0701 VRB03KT 3000 BR TEMPO 0703/0708 1400 BCFG BKN004 PROB40 TEMPO 0704/0707 0400 FG BKN001 BECMG 0707/0710 8000 NSW BKN020=

    Metar: METAR EBBR 061450Z 23013KT 200V280 CAVOK 20/05 Q1021 NOSIG=

  • Düsseldorf (EDDL)

    Taf: TAF EDDL 061100Z 0612/0718 20012KT CAVOK TEMPO 0612/0614 20015G25KT BECMG 0617/0619 25006KT BECMG 0700/0702 VRB03KT PROB30 TEMPO 0705/0708 4500 BR BKN008 BECMG 0708/0710 06005KT=

    Metar: METAR EDDL 061450Z 22012KT CAVOK 23/04 Q1020 NOSIG=

  • Luxeuil (LFSX)

    Taf: TAF LFSX 061400Z 0615/0715 23012KT CAVOK=

    Metar: METAR LFSX 061500Z AUTO 23008KT 170V270 CAVOK 22/M02 Q1023=

  • Eindhoven (EHEH)

    Taf: TAF EHEH 061135Z 0612/0718 20010KT CAVOK BECMG 0612/0614 22012G22KT BECMG 0616/0619 25005KT SCT018 BKN030 PROB40 TEMPO 0618/0622 SCT010 BKN030 BECMG 0622/0701 VRB02KT 2500 BR MIFG SCT045 PROB40 0701/0708 0500 FG BECMG 0707/0709 10007KT CAVOK=

    Metar: METAR EHEH 061455Z AUTO 23010G21KT 190V290 9999 FEW086 24/02 Q1019 BLU 20012G22KT CAVOK=

  • Niederrhein (EDLV)

    Taf: TAF EDLV 061100Z NIL=

    Metar: METAR EDLV 061450Z NIL=

  • Dortmund/Wickede (EDLW)

    Taf: TAF EDLW 061320Z 0614/0712 22012KT CAVOK BECMG 0616/0618 22007KT BECMG 0623/0702 VRB03KT PROB30 TEMPO 0703/0708 4000 BR BKN005 BECMG 0710/0712 05007KT=

    Metar: METAR EDLW 061450Z 21011KT CAVOK 23/M00 Q1020=

  • Stuttgart/Echterdingen (EDDS)

    Taf: TAF EDDS 061100Z 0612/0712 08005KT CAVOK BECMG 0618/0620 VRB03KT BECMG 0708/0710 07008KT=

    Metar: METAR EDDS 061450Z VRB02KT CAVOK 21/03 Q1023 NOSIG=

  • Basel-Mühlhausen (LFSB)

    Taf: TAF LFSB 061100Z 0612/0712 VRB03KT CAVOK=

    Metar: METAR LFSB 061500Z AUTO VRB03KT CAVOK 23/04 Q1022 NOSIG=

  • Lille (LFQQ)

    Taf: TAF AMD LFQQ 061435Z 0614/0718 24010KT 9999 BKN020 PROB40 TEMPO 0616/0623 BKN012 BECMG 0700/0702 07005KT 3000 BR BKN003 PROB40 TEMPO 0703/0708 0600 FG VV/// BECMG 0709/0712 CAVOK=

    Metar: METAR LFQQ 061500Z AUTO 22011KT 9999 BKN027 BKN037 OVC043 13/10 Q1022 NOSIG=

  • Paris/Charles de Gaulle (LFPG)

    Taf: TAF AMD LFPG 061429Z 0614/0718 20012KT 8000 BKN011 TX23/0715Z TN09/0706Z TEMPO 0614/0617 3000 RADZ BKN006 BECMG 0618/0621 SCT012 BKN040 BECMG 0621/0624 03006KT PROB30 TEMPO 0700/0705 4000 BR PROB30 TEMPO 0705/0709 0800 FG BKN003 BECMG 0709/0712 12010KT=

    Metar: METAR LFPG 061500Z AUTO 19007KT 9999 OVC007 12/11 Q1023 TEMPO 3000 RADZ=

  • Paderborn/Lippstadt (EDLP)

    Taf: TAF EDLP 061100Z NIL=

    Metar: METAR EDLP NIL=

  • Paris/Le Bourget (LFPB)

    Taf: TAF LFPB 061100Z NIL=

    Metar: METAR LFPB 061500Z AUTO 17008KT 9999 BKN010 BKN070 OVC086 13/11 Q1023=

  • Rotterdam (EHRD)

    Taf: TAF EHRD 061054Z 0612/0718 22013KT CAVOK BECMG 0612/0615 25014KT PROB40 TEMPO 0616/0619 7000 -RA BKN014 BECMG 0618/0621 24005KT BECMG 0622/0701 VRB03KT 2000 BCFG PROB40 0701/0709 0600 FG BECMG 0706/0709 11006KT CAVOK=

    Metar: METAR EHRD 061455Z AUTO 26013KT 210V300 9999 NSC 16/09 Q1020 TEMPO 7000 -RA=

  • Zürich/Kloten (LSZH)

    Taf: TAF LSZH 061425Z 0615/0721 VRB02KT CAVOK TX21/0615Z TN02/0705Z TX22/0715Z PROB40 TEMPO 0615/0619 05007KT BECMG 0709/0712 05010KT BECMG 0716/0719 VRB03KT=

    Metar: METAR LSZH 061450Z VRB02KT CAVOK 21/M01 Q1023 NOSIG=

  • Oostende/Intl (EBOS)

    Taf: TAF EBOS 061100Z 0612/0718 21014KT 9999 SCT020 TEMPO 0612/0615 SCT009 BKN014 BECMG 0613/0616 27012KT BECMG 0619/0621 21007KT BECMG 0700/0703 3000 BR PROB40 TEMPO 0703/0708 0400 FG BKN001=

    Metar: METAR EBOS 061450Z 21011KT 9999 FEW008 BKN035 13/10 Q1021 NOSIG=

  • Paris/Orly (LFPO)

    Taf: TAF LFPO 061100Z NIL=

    Metar: METAR LFPO 061500Z AUTO 18006KT 9999 BKN008 OVC012 12/11 Q1023=

  • Beauvais (LFOB)

    Taf: TAF LFOB 061100Z NIL=

    Metar: METAR LFOB 061500Z AUTO 17006KT 140V210 9999 SCT009 BKN042 OVC048 13/11 Q1022=

  • Münster/Intl (EDDG)

    Taf: TAF EDDG 061100Z 0612/0712 20010KT CAVOK BECMG 0617/0619 26005KT BECMG 0700/0702 VRB03KT TEMPO 0704/0708 3500 BR PROB30 TEMPO 0704/0707 0800 BCFG BKN005=

    Metar: METAR EDDG 061450Z 22010KT CAVOK 24/02 Q1019 NOSIG=

  • Illesheim (ETIK)

    Taf: TAF ETIK 061502Z 0614/0720 VRB06KT 9999 SKC QNH3022INS BECMG 0714/0715 05009KT 9999 SKC QNH3039INS TX23/0713Z TN02/0705Z=

    Metar: METAR ETIK 061456Z AUTO 27005KT 9999 CLR 21/02 A3024 RMK AO2 SLP246 T02050018 53000 $=

  • Duebendorf (LSMD)

    Taf: TAF LSMD 060925Z 0610/0716 VRB02KT CAVOK TEMPO 0611/0618 06012KT BECMG 0709/0712 06020KT=

    Metar: METAR LSMD 061450Z AUTO VRB02KT 9999NDV NCD 21/M00 Q1023 RMK=

  • Villacoublay (LFPV)

    Taf: TAF LFPV 061400Z 0615/0715 20006KT 6000 RA OVC005 SCT010TCU BECMG 0617/0618 9999 NSW BKN015 TEMPO 0623/0703 BKN005 PROB30 TEMPO 0701/0703 OVC003 BECMG 0705/0709 OVC005 PROB30 TEMPO 0706/0708 3000 BR OVC003 BECMG 0709/0710 BKN012 BECMG 0711/0713 CAVOK=

    Metar: METAR LFPV 061500Z AUTO 21005KT 170V250 9999 OVC005 12/11 Q1023 BECMG RA OVC005 SCT010TCU=

  • Payerne (LSMP)

    Taf: TAF LSMP 060925Z 0610/0716 VRB03KT CAVOK=

    Metar: METAR LSMP 061450Z 31005KT 250V340 CAVOK 20/02 Q1024 RMK BLU=

  • Amsterdam/Schipol (EHAM)

    Taf: TAF EHAM 061046Z 0612/0718 22013KT CAVOK BECMG 0612/0615 25014KT PROB40 TEMPO 0616/0619 7000 -RA BKN014 BECMG 0618/0621 24005KT BECMG 0622/0701 VRB03KT 2000 BCFG PROB40 0701/0709 0600 FG BECMG 0706/0709 11006KT CAVOK=

    Metar: METAR EHAM 061455Z 25018KT CAVOK 16/07 Q1019 NOSIG=

  • Emmen (LSME)

    Taf: TAF LSME 060925Z 0610/0716 VRB02KT CAVOK TEMPO 0611/0618 03012KT BECMG 0710/0713 05015KT=

    Metar: METAR LSME 061450Z AUTO 10003KT 010V160 9999NDV NCD 20/03 Q1023 RMK=

  • Friedrichshafen (EDNY)

    Taf: TAF EDNY 061100Z 0612/0712 24005KT CAVOK BECMG 0616/0618 03003KT BECMG 0710/0712 04008KT=

    Metar: METAR EDNY 061450Z 22008KT CAVOK 20/02 Q1023=

  • Alpnach (LSMA)

    Taf: TAF LSMA 060925Z 0610/0716 04004KT CAVOK TEMPO 0611/0618 05015KT BECMG 0709/0712 05015KT=

    Metar: METAR LSMA 061450Z AUTO 06009KT 9999NDV NCD 19/01 Q1023 RMK=

  • Meiringen (LSMM)

    Taf: TAF LSMM 060925Z 0610/0716 27004KT CAVOK TEMPO 0613/0620 08015KT BECMG 0709/0712 03020KT=

    Metar: METAR LSMM 061450Z 25008KT 240V300 9999 FEW080 19/01 Q1023 RMK BLU+=

  • Nürnberg (EDDN)

    Taf: TAF EDDN 061100Z 0612/0712 26005KT CAVOK BECMG 0616/0618 12003KT BECMG 0711/0712 06006KT=

    Metar: METAR EDDN 061450Z 26006KT 230V290 CAVOK 21/M03 Q1023 NOSIG=

  • Rouen (LFOP)

    Taf: TAF LFOP 061100Z NIL=

    Metar: METAR LFOP 061500Z AUTO VRB01KT 9999 BKN028 BKN033 16/09 Q1022=

  • Evreux (LFOE)

    Taf: TAF LFOE 061400Z 0615/0715 19012KT 9999 SCT012 BKN060 BECMG 0618/0620 VRB03KT BECMG 0700/0702 0800 FG BKN001 TEMPO 0703/0705 0300 FG VV/// BECMG 0707/0709 08008KT 9999 NSW FEW005=

    Metar: METAR LFOE 061500Z AUTO 17011KT 9999 FEW014 BKN060 15/11 Q1022 NOSIG=

  • Erfurt/Bindersleben (EDDE)

    Taf: TAF EDDE 061100Z 0612/0712 22005KT CAVOK BECMG 0706/0709 32005KT=

    Metar: METAR EDDE 061450Z VRB02KT CAVOK 22/02 Q1022 NOSIG=